Time;durP1;ratioP1;P1;durP2;ratioP2;P2;SDS_P1;SDS_P2;PMS_P1;PMS_P2;Temp;Humidity;BMP_temperature;BMP_pressure;BME280_temperature;BME280_humidity;BME280_pressure;Samples;Min_cycle;Max_cycle;Signal;HPM_P1;HPM_P2
2022/03/23 00:01:21;;;;;;;0.80;0.60;;;6.80;99.90;;;;;;5032172;28;20395;-69
2022/03/23 00:03:47;;;;;;;1.57;1.47;;;6.80;99.90;;;;;;5032136;28;20513;-69
2022/03/23 00:06:13;;;;;;;1.07;0.97;;;6.80;99.90;;;;;;5032317;28;20399;-69
2022/03/23 00:08:39;;;;;;;3.10;1.83;;;6.80;99.90;;;;;;5032147;28;20286;-69
2022/03/23 00:11:04;;;;;;;0.80;0.77;;;6.80;99.90;;;;;;5032006;28;20402;-69
2022/03/23 00:13:30;;;;;;;0.80;0.80;;;6.80;99.90;;;;;;5031958;28;20679;-69
2022/03/23 00:15:56;;;;;;;0.70;0.50;;;6.70;99.90;;;;;;5032200;28;20190;-69
2022/03/23 00:18:21;;;;;;;0.83;0.73;;;6.70;99.90;;;;;;5032026;28;20216;-69
2022/03/23 00:20:47;;;;;;;1.53;1.37;;;6.70;99.90;;;;;;5031406;28;20164;-69
2022/03/23 00:23:13;;;;;;;1.90;1.10;;;6.60;99.90;;;;;;5032031;28;20164;-70
2022/03/23 00:25:38;;;;;;;1.57;1.47;;;6.60;99.90;;;;;;5032008;28;20656;-69
2022/03/23 00:28:05;;;;;;;0.70;0.60;;;6.60;99.90;;;;;;5032009;28;20191;-70
2022/03/23 00:30:32;;;;;;;1.17;1.07;;;6.50;99.90;;;;;;5031566;28;20171;-69
2022/03/23 00:32:58;;;;;;;1.33;0.93;;;6.40;99.90;;;;;;5031756;28;20476;-69
2022/03/23 00:35:24;;;;;;;0.70;0.50;;;6.40;99.90;;;;;;5031149;28;20414;-69
2022/03/23 00:37:50;;;;;;;0.70;0.53;;;6.40;99.90;;;;;;5030933;28;20465;-69
2022/03/23 00:40:15;;;;;;;0.70;0.50;;;6.30;99.90;;;;;;5031145;28;20198;-69
2022/03/23 00:42:41;;;;;;;2.23;0.97;;;6.30;99.90;;;;;;5031488;28;20426;-69
2022/03/23 00:45:07;;;;;;;1.23;1.13;;;6.20;99.90;;;;;;5030425;28;20210;-69
2022/03/23 00:47:35;;;;;;;0.97;0.80;;;6.20;99.90;;;;;;5031763;28;20159;-70
2022/03/23 00:50:01;;;;;;;0.80;0.60;;;6.20;99.90;;;;;;5031801;28;20460;-70
2022/03/23 00:52:27;;;;;;;0.80;0.60;;;6.20;99.90;;;;;;5031563;28;20403;-70
2022/03/23 00:54:52;;;;;;;0.80;0.70;;;6.10;99.90;;;;;;5031426;28;20557;-69
2022/03/23 00:57:18;;;;;;;0.80;0.50;;;6.10;99.90;;;;;;5031758;28;20629;-70
2022/03/23 00:59:43;;;;;;;1.13;1.03;;;6.00;99.90;;;;;;5030431;28;20171;-70
2022/03/23 01:02:10;;;;;;;1.47;1.37;;;6.00;99.90;;;;;;5031475;28;20187;-69
2022/03/23 01:04:36;;;;;;;0.80;0.73;;;6.00;99.90;;;;;;5031800;28;20669;-69
2022/03/23 01:07:02;;;;;;;0.80;0.60;;;5.90;99.90;;;;;;5031688;28;20536;-70
2022/03/23 01:09:27;;;;;;;6.10;2.90;;;5.90;99.90;;;;;;5031620;28;20406;-69
2022/03/23 01:11:54;;;;;;;0.70;0.50;;;5.90;99.90;;;;;;5035312;28;20206;-69
2022/03/23 01:14:23;;;;;;;1.23;1.13;;;5.80;99.90;;;;;;5035079;28;20207;-69
2022/03/23 01:16:52;;;;;;;2.00;1.57;;;5.80;99.90;;;;;;5034263;28;20414;-70
2022/03/23 01:19:22;;;;;;;1.17;0.80;;;5.80;99.90;;;;;;5035314;28;20777;-69
2022/03/23 01:21:48;;;;;;;0.70;0.50;;;5.80;99.90;;;;;;5034771;28;20409;-69
2022/03/23 01:24:13;;;;;;;0.80;0.70;;;5.80;99.90;;;;;;5035258;28;20915;-69
2022/03/23 01:26:39;;;;;;;1.07;0.73;;;5.80;99.90;;;;;;5035190;28;20175;-69
2022/03/23 01:29:04;;;;;;;1.00;0.90;;;5.70;99.90;;;;;;5035205;28;20171;-69
2022/03/23 01:31:31;;;;;;;3.47;1.73;;;5.70;99.90;;;;;;5034852;28;20199;-69
2022/03/23 01:33:59;;;;;;;0.80;0.60;;;5.70;99.90;;;;;;5034852;28;20275;-69
2022/03/23 01:36:29;;;;;;;0.70;0.57;;;5.70;99.90;;;;;;5035035;28;20398;-69
2022/03/23 01:38:55;;;;;;;0.90;0.80;;;5.60;99.90;;;;;;5035140;28;20770;-70
2022/03/23 01:41:21;;;;;;;2.50;1.67;;;5.60;99.90;;;;;;5034659;28;20405;-69
2022/03/23 01:43:47;;;;;;;0.80;0.60;;;5.60;99.90;;;;;;5034653;28;20765;-69
2022/03/23 01:46:16;;;;;;;0.80;0.70;;;5.50;99.90;;;;;;5034643;28;20164;-69
2022/03/23 01:48:41;;;;;;;0.73;0.60;;;5.50;99.90;;;;;;5034798;28;20168;-69
2022/03/23 01:51:07;;;;;;;1.93;1.33;;;5.50;99.90;;;;;;5034460;28;20771;-70
2022/03/23 01:53:32;;;;;;;2.90;1.87;;;5.40;99.90;;;;;;5034717;28;20183;-70
2022/03/23 01:55:59;;;;;;;1.03;0.93;;;5.40;99.90;;;;;;5034547;28;20186;-69
2022/03/23 01:58:25;;;;;;;0.70;0.60;;;5.40;99.90;;;;;;5034660;28;20163;-69
2022/03/23 02:00:51;;;;;;;1.33;1.17;;;5.40;99.90;;;;;;5034290;28;20402;-70
2022/03/23 02:03:17;;;;;;;0.70;0.60;;;5.30;99.90;;;;;;5034558;28;20406;-69
2022/03/23 02:05:43;;;;;;;1.03;0.93;;;5.30;99.90;;;;;;5034427;28;20966;-70
2022/03/23 02:08:10;;;;;;;1.60;1.50;;;5.30;99.90;;;;;;5034505;28;20175;-69
2022/03/23 02:10:35;;;;;;;1.37;1.00;;;5.20;99.90;;;;;;5034117;28;20167;-69
2022/03/23 02:13:01;;;;;;;1.10;0.90;;;5.20;99.90;;;;;;5034206;28;20442;-69
2022/03/23 02:15:28;;;;;;;0.70;0.50;;;5.20;99.90;;;;;;5034393;28;20675;-69
2022/03/23 02:17:54;;;;;;;0.70;0.50;;;5.20;99.90;;;;;;5034307;28;20246;-69
2022/03/23 02:20:20;;;;;;;0.70;0.50;;;5.20;99.90;;;;;;5032994;28;20418;-69
2022/03/23 02:22:46;;;;;;;0.87;0.87;;;5.10;99.90;;;;;;5031244;28;20417;-69
2022/03/23 02:25:13;;;;;;;0.70;0.50;;;5.10;99.90;;;;;;5034028;28;20782;-69
2022/03/23 02:27:40;;;;;;;1.67;0.87;;;5.10;99.90;;;;;;5034025;28;20395;-69
2022/03/23 02:30:09;;;;;;;0.90;0.60;;;5.00;99.90;;;;;;5034121;28;20429;-70
2022/03/23 02:32:35;;;;;;;0.77;0.60;;;5.00;99.90;;;;;;5033596;28;20434;-69
2022/03/23 02:35:01;;;;;;;3.13;2.93;;;5.00;99.90;;;;;;5034052;28;20459;-69
2022/03/23 02:37:27;;;;;;;1.53;1.43;;;5.00;99.90;;;;;;5033985;28;20411;-70
2022/03/23 02:39:53;;;;;;;0.70;0.50;;;4.90;99.90;;;;;;5033805;28;20763;-69
2022/03/23 02:42:19;;;;;;;0.70;0.50;;;4.90;99.90;;;;;;5033520;28;20425;-69
2022/03/23 02:44:44;;;;;;;2.23;1.43;;;4.90;99.90;;;;;;5033697;28;20438;-69
2022/03/23 02:47:10;;;;;;;0.70;0.60;;;4.90;99.90;;;;;;5033744;28;20172;-69
2022/03/23 02:49:36;;;;;;;0.77;0.63;;;4.80;99.90;;;;;;5033757;28;20171;-69
2022/03/23 02:52:02;;;;;;;0.70;0.50;;;4.80;99.90;;;;;;5033312;28;20788;-69
2022/03/23 03:03:14;;;;;;;1.10;1.00;;;4.70;99.90;;;;;;5033504;28;20453;-69
2022/03/23 03:05:40;;;;;;;1.10;0.97;;;4.70;99.90;;;;;;5033339;28;20430;-69
2022/03/23 03:10:50;;;;;;;1.77;1.67;;;4.70;99.90;;;;;;5033101;28;20241;-69
2022/03/23 03:13:15;;;;;;;0.70;0.50;;;4.70;99.90;;;;;;5033064;28;20450;-69
2022/03/23 03:15:41;;;;;;;1.27;1.17;;;4.70;99.90;;;;;;5033216;28;20550;-69
2022/03/23 03:18:06;;;;;;;0.77;0.67;;;4.60;99.90;;;;;;5033184;28;20194;-69
2022/03/23 03:20:32;;;;;;;0.80;0.63;;;4.60;99.90;;;;;;5033152;28;20661;-69
2022/03/23 03:22:58;;;;;;;0.70;0.50;;;4.60;99.90;;;;;;5032737;28;20176;-69
2022/03/23 03:25:24;;;;;;;2.90;2.40;;;4.50;99.90;;;;;;5033000;28;20183;-69
2022/03/23 03:27:50;;;;;;;1.90;1.00;;;4.50;99.90;;;;;;5032884;28;20493;-69
2022/03/23 03:30:18;;;;;;;0.80;0.60;;;4.50;99.90;;;;;;5032981;28;20505;-69
2022/03/23 03:32:45;;;;;;;0.80;0.50;;;4.50;99.90;;;;;;5032133;28;20167;-69
2022/03/23 03:35:11;;;;;;;2.13;1.57;;;4.50;99.90;;;;;;5032738;28;20425;-69
2022/03/23 03:37:37;;;;;;;0.90;0.80;;;4.50;99.90;;;;;;5032767;28;20888;-69
2022/03/23 03:40:04;;;;;;;1.00;0.90;;;4.50;99.90;;;;;;5032786;28;20544;-69
2022/03/23 03:42:30;;;;;;;1.37;1.20;;;4.50;99.90;;;;;;5032372;28;20422;-69
2022/03/23 03:44:57;;;;;;;1.03;1.00;;;4.50;99.90;;;;;;5032842;28;20457;-70
2022/03/23 03:47:23;;;;;;;0.73;0.53;;;4.50;99.90;;;;;;5032672;28;20413;-70
2022/03/23 03:49:49;;;;;;;3.00;2.90;;;4.40;99.90;;;;;;5032471;28;20410;-69
2022/03/23 03:52:15;;;;;;;0.80;0.60;;;4.40;99.90;;;;;;5032257;28;20416;-69
2022/03/23 03:54:40;;;;;;;0.90;0.70;;;4.40;99.90;;;;;;5032101;28;20967;-69
2022/03/23 03:57:07;;;;;;;0.70;0.60;;;4.40;99.90;;;;;;5032453;28;20652;-69
2022/03/23 03:59:34;;;;;;;0.80;0.63;;;4.30;99.90;;;;;;5032443;28;20198;-69
2022/03/23 04:02:00;;;;;;;1.03;0.83;;;4.30;99.90;;;;;;5032154;28;20773;-69
2022/03/23 04:04:25;;;;;;;1.00;0.80;;;4.30;99.90;;;;;;5032235;28;20441;-69
2022/03/23 04:06:51;;;;;;;1.10;1.00;;;4.30;99.90;;;;;;5031024;28;20179;-69
2022/03/23 04:09:17;;;;;;;2.37;1.70;;;4.20;99.90;;;;;;5032268;28;20176;-69
2022/03/23 04:11:42;;;;;;;0.70;0.50;;;4.20;99.90;;;;;;5030717;28;20217;-69
2022/03/23 04:14:08;;;;;;;0.80;0.70;;;4.20;99.90;;;;;;5032074;28;20462;-69
2022/03/23 04:16:33;;;;;;;0.70;0.60;;;4.10;99.90;;;;;;5032233;28;20176;-69
2022/03/23 04:19:00;;;;;;;7.60;1.47;;;4.10;99.90;;;;;;5032126;28;20580;-69
2022/03/23 04:21:25;;;;;;;0.70;0.53;;;4.10;99.90;;;;;;5031903;28;20171;-69
2022/03/23 04:23:51;;;;;;;1.53;0.80;;;4.00;99.90;;;;;;5031929;28;20406;-69
2022/03/23 04:26:16;;;;;;;1.57;1.27;;;4.00;99.90;;;;;;5032084;28;20245;-69
2022/03/23 04:28:42;;;;;;;2.13;0.80;;;4.00;99.90;;;;;;5032066;28;20823;-69
2022/03/23 04:31:08;;;;;;;1.90;1.80;;;3.90;99.90;;;;;;5031742;28;20229;-70
2022/03/23 04:33:33;;;;;;;0.70;0.60;;;3.90;99.90;;;;;;5031929;28;20198;-69
2022/03/23 04:35:59;;;;;;;1.77;1.67;;;3.90;99.90;;;;;;5030742;28;20513;-69
2022/03/23 04:38:26;;;;;;;0.80;0.80;;;3.90;99.90;;;;;;5031923;28;20191;-69
2022/03/23 04:40:51;;;;;;;0.70;0.50;;;3.90;99.90;;;;;;5031707;28;20167;-69
2022/03/23 04:43:17;;;;;;;0.70;0.50;;;3.90;99.90;;;;;;5031764;28;20413;-70
2022/03/23 04:45:43;;;;;;;1.87;1.77;;;3.90;99.90;;;;;;5034006;28;20183;-70
2022/03/23 04:48:08;;;;;;;0.90;0.60;;;3.90;99.90;;;;;;5036015;28;20176;-69
2022/03/23 04:50:34;;;;;;;1.50;1.40;;;3.80;99.90;;;;;;5035854;28;20168;-69
2022/03/23 04:53:00;;;;;;;2.03;1.93;;;3.80;99.90;;;;;;5035531;28;20201;-69
2022/03/23 04:55:25;;;;;;;1.33;1.23;;;3.80;99.90;;;;;;5036083;28;20203;-69
2022/03/23 04:57:51;;;;;;;0.70;0.50;;;3.90;99.90;;;;;;5035816;28;20171;-69
2022/03/23 05:00:20;;;;;;;1.20;1.10;;;3.90;99.90;;;;;;5035880;28;20171;-69
2022/03/23 05:02:48;;;;;;;0.70;0.50;;;3.90;99.90;;;;;;5035204;28;20168;-69
2022/03/23 05:05:14;;;;;;;0.90;0.70;;;3.90;99.90;;;;;;5035587;28;20421;-69
2022/03/23 05:07:40;;;;;;;0.70;0.50;;;3.90;99.90;;;;;;5035557;28;20398;-69
2022/03/23 05:10:08;;;;;;;0.70;0.50;;;3.80;99.90;;;;;;5035391;28;20844;-69
2022/03/23 05:12:35;;;;;;;0.80;0.60;;;3.80;99.90;;;;;;5035331;28;20507;-69
2022/03/23 05:15:01;;;;;;;0.83;0.83;;;3.70;99.90;;;;;;5035338;28;20488;-69
2022/03/23 05:17:26;;;;;;;0.90;0.90;;;3.70;99.90;;;;;;5035481;28;20537;-70
2022/03/23 05:19:52;;;;;;;6.10;2.00;;;3.70;99.90;;;;;;5035518;28;20160;-69
2022/03/23 05:22:17;;;;;;;1.50;1.40;;;3.70;99.90;;;;;;5034952;28;20171;-69
2022/03/23 05:24:43;;;;;;;1.10;1.00;;;3.70;99.90;;;;;;5035271;28;20195;-69
2022/03/23 05:27:09;;;;;;;0.70;0.60;;;3.70;99.90;;;;;;5035272;28;20171;-70
2022/03/23 05:29:37;;;;;;;0.80;0.80;;;3.70;99.90;;;;;;5035279;28;20638;-69
2022/03/23 05:32:03;;;;;;;9.80;0.93;;;3.70;99.90;;;;;;5034888;28;20167;-69
2022/03/23 05:34:29;;;;;;;0.70;0.50;;;3.70;99.90;;;;;;5034919;28;20485;-69
2022/03/23 05:36:55;;;;;;;0.90;0.60;;;3.70;99.90;;;;;;5034889;28;20461;-69
2022/03/23 05:39:20;;;;;;;1.20;1.10;;;3.70;99.90;;;;;;5035133;28;20164;-70
2022/03/23 05:41:46;;;;;;;6.70;2.30;;;3.70;99.90;;;;;;5034718;28;20402;-69
2022/03/23 05:44:12;;;;;;;0.70;0.57;;;3.70;99.90;;;;;;5034874;28;20270;-69
2022/03/23 05:46:38;;;;;;;1.37;1.13;;;3.70;99.90;;;;;;5034877;28;20496;-69
2022/03/23 05:49:03;;;;;;;1.03;0.90;;;3.70;99.90;;;;;;5034802;28;20163;-69
2022/03/23 05:51:29;;;;;;;2.33;1.17;;;3.70;99.90;;;;;;5033192;28;20175;-69
2022/03/23 05:53:54;;;;;;;2.80;1.50;;;3.70;99.90;;;;;;5034430;28;20207;-70
2022/03/23 05:56:20;;;;;;;0.80;0.60;;;3.80;99.90;;;;;;5034506;28;20170;-69
2022/03/23 05:58:45;;;;;;;1.30;0.90;;;3.80;99.90;;;;;;5033608;28;20164;-69
2022/03/23 06:01:11;;;;;;;1.07;0.97;;;3.80;99.90;;;;;;5034699;28;20187;-69
2022/03/23 06:03:37;;;;;;;0.70;0.50;;;4.00;99.90;;;;;;5034511;28;20175;-70
2022/03/23 06:06:03;;;;;;;0.70;0.60;;;4.10;99.90;;;;;;5034537;28;20179;-70
2022/03/23 06:08:29;;;;;;;2.13;1.27;;;4.20;99.90;;;;;;5034477;28;20260;-70
2022/03/23 06:10:54;;;;;;;3.10;2.90;;;4.40;99.90;;;;;;5034380;28;20446;-70
2022/03/23 06:13:20;;;;;;;1.43;1.33;;;4.60;99.90;;;;;;5034188;28;20199;-70
2022/03/23 06:15:46;;;;;;;1.00;0.70;;;4.80;99.90;;;;;;5034342;28;20266;-70
2022/03/23 06:18:12;;;;;;;2.40;2.20;;;5.10;99.90;;;;;;5034287;28;20175;-70
2022/03/23 06:20:38;;;;;;;1.27;1.17;;;5.30;99.90;;;;;;5034244;28;20583;-70
2022/03/23 06:23:03;;;;;;;3.57;3.23;;;5.60;99.90;;;;;;5033934;28;20164;-70
2022/03/23 06:25:29;;;;;;;1.30;1.20;;;5.80;99.90;;;;;;5034332;28;20188;-69
2022/03/23 06:27:55;;;;;;;1.10;1.00;;;6.00;99.90;;;;;;5034306;28;20164;-69
2022/03/23 06:30:20;;;;;;;1.00;0.80;;;6.30;99.90;;;;;;5034162;28;20195;-70
2022/03/23 06:32:46;;;;;;;1.20;1.10;;;6.50;99.90;;;;;;5033686;28;20254;-70
2022/03/23 06:35:12;;;;;;;1.10;1.00;;;6.70;99.90;;;;;;5033865;28;20607;-70
2022/03/23 06:37:37;;;;;;;1.13;1.03;;;6.80;99.90;;;;;;5032650;28;20167;-70
2022/03/23 06:40:06;;;;;;;0.83;0.80;;;7.00;99.90;;;;;;5033907;28;20168;-70
2022/03/23 06:42:32;;;;;;;0.80;0.70;;;7.10;99.90;;;;;;5033665;28;20648;-70
2022/03/23 06:44:58;;;;;;;1.40;1.30;;;7.10;99.90;;;;;;5033772;28;20461;-70
2022/03/23 06:47:23;;;;;;;2.90;2.70;;;7.20;99.90;;;;;;5033843;28;20167;-70
2022/03/23 06:49:49;;;;;;;2.57;2.37;;;7.20;99.90;;;;;;5033675;28;20172;-70
2022/03/23 06:52:16;;;;;;;0.80;0.70;;;7.20;99.90;;;;;;5033339;28;20175;-70
2022/03/23 06:54:42;;;;;;;1.50;1.40;;;7.20;99.90;;;;;;5033400;28;20344;-70
2022/03/23 06:57:08;;;;;;;1.47;1.37;;;7.20;99.90;;;;;;5033608;28;20403;-69
2022/03/23 06:59:33;;;;;;;1.40;1.00;;;7.30;99.90;;;;;;5033615;28;20167;-70
2022/03/23 07:01:59;;;;;;;0.97;0.87;;;7.20;99.90;;;;;;5033264;28;20629;-70
2022/03/23 07:04:24;;;;;;;3.67;3.50;;;7.20;99.90;;;;;;5033645;28;20191;-71
2022/03/23 07:06:51;;;;;;;1.33;1.23;;;7.20;99.90;;;;;;5033384;28;20168;-70
2022/03/23 07:09:32;;;;;;;1.50;1.40;;;7.40;99.90;;;;;;5032908;28;20175;-70
2022/03/23 07:12:02;;;;;;;1.23;1.13;;;7.40;99.90;;;;;;5033205;28;20390;-70
2022/03/23 07:14:29;;;;;;;4.83;2.80;;;7.50;99.90;;;;;;5033055;28;20458;-70
2022/03/23 07:16:55;;;;;;;2.00;1.87;;;7.60;99.90;;;;;;5033323;28;20493;-70
2022/03/23 07:19:20;;;;;;;1.70;1.60;;;7.80;99.90;;;;;;5033084;28;20493;-70
2022/03/23 07:21:46;;;;;;;2.43;2.23;;;8.10;99.90;;;;;;5032926;28;20603;-70
2022/03/23 07:24:12;;;;;;;6.63;1.63;;;8.80;99.90;;;;;;5033006;28;20665;-71
2022/03/23 07:26:37;;;;;;;0.80;0.80;;;9.70;99.90;;;;;;5033058;28;20707;-71
2022/03/23 07:29:03;;;;;;;3.73;3.27;;;10.70;99.90;;;;;;5032985;28;20541;-70
2022/03/23 07:31:29;;;;;;;4.43;1.60;;;11.80;99.90;;;;;;5032669;28;20175;-71
2022/03/23 07:33:54;;;;;;;1.87;1.77;;;12.90;99.90;;;;;;5032663;28;20203;-71
2022/03/23 07:36:20;;;;;;;1.37;1.27;;;13.80;99.90;;;;;;5032822;28;20246;-71
2022/03/23 07:38:45;;;;;;;1.97;1.77;;;14.60;99.90;;;;;;5032878;28;20175;-71
2022/03/23 07:41:11;;;;;;;2.20;2.00;;;15.50;99.90;;;;;;5032580;28;20167;-71
2022/03/23 07:43:36;;;;;;;3.37;2.30;;;15.90;96.40;;;;;;5032705;28;20222;-71
2022/03/23 07:46:02;;;;;;;4.00;2.40;;;16.60;93.30;;;;;;5032662;28;20202;-71
2022/03/23 07:48:27;;;;;;;3.33;2.67;;;17.20;92.20;;;;;;5032491;28;20176;-71
2022/03/23 07:50:53;;;;;;;5.23;4.10;;;17.60;90.40;;;;;;5032676;28;20174;-71
2022/03/23 07:53:19;;;;;;;4.73;4.13;;;18.00;85.30;;;;;;5032183;28;20191;-71
2022/03/23 07:55:45;;;;;;;4.00;2.00;;;18.50;80.80;;;;;;5032374;28;20579;-71
2022/03/23 07:58:11;;;;;;;5.67;3.50;;;18.90;75.20;;;;;;5032452;28;20406;-71
2022/03/23 08:00:38;;;;;;;3.63;2.30;;;19.30;72.10;;;;;;5032396;28;20629;-71
2022/03/23 08:03:04;;;;;;;5.10;4.20;;;19.90;67.80;;;;;;5032079;28;20398;-71
2022/03/23 08:05:31;;;;;;;7.10;3.20;;;20.70;66.80;;;;;;5031014;28;20464;-71
2022/03/23 08:07:57;;;;;;;4.07;3.20;;;21.40;63.60;;;;;;5032367;28;20406;-71
2022/03/23 08:10:23;;;;;;;6.83;4.10;;;21.90;59.30;;;;;;5032284;28;20403;-71
2022/03/23 08:12:50;;;;;;;5.73;2.97;;;22.70;58.00;;;;;;5031915;28;20749;-71
2022/03/23 08:15:16;;;;;;;4.53;3.70;;;23.30;55.70;;;;;;5032096;28;20415;-71
2022/03/23 08:17:42;;;;;;;5.10;3.77;;;24.00;53.90;;;;;;5032003;28;20394;-71
2022/03/23 08:22:53;;;;;;;4.33;3.93;;;25.50;50.30;;;;;;5031918;28;20196;-72
2022/03/23 08:25:19;;;;;;;6.30;4.10;;;26.30;48.50;;;;;;5031943;28;20414;-72
2022/03/23 08:27:45;;;;;;;12.83;3.40;;;26.80;46.80;;;;;;5032069;28;20773;-69
2022/03/23 08:30:11;;;;;;;5.63;3.60;;;27.20;45.30;;;;;;5032034;28;20170;-69
2022/03/23 08:32:37;;;;;;;6.70;4.93;;;27.60;43.50;;;;;;5031734;28;20410;-69
2022/03/23 08:35:02;;;;;;;5.50;3.73;;;28.30;43.40;;;;;;5031890;28;20857;-69
2022/03/23 08:37:29;;;;;;;4.50;4.17;;;29.00;43.00;;;;;;5031983;28;20172;-69
2022/03/23 08:39:55;;;;;;;4.57;3.00;;;29.40;41.80;;;;;;5031900;28;20167;-69
2022/03/23 08:42:21;;;;;;;4.53;4.03;;;30.10;41.20;;;;;;5031701;28;20394;-69
2022/03/23 08:44:46;;;;;;;7.53;3.17;;;30.60;40.10;;;;;;5031753;28;20535;-69
2022/03/23 08:47:12;;;;;;;5.00;4.10;;;31.20;39.80;;;;;;5031848;28;20218;-69
2022/03/23 08:49:38;;;;;;;8.53;4.30;;;31.60;38.40;;;;;;5031779;28;20167;-69
2022/03/23 08:52:04;;;;;;;3.90;2.87;;;32.20;37.90;;;;;;5031532;28;20171;-69
2022/03/23 08:54:30;;;;;;;5.90;3.67;;;32.70;36.70;;;;;;5031385;28;20454;-69
2022/03/23 08:56:56;;;;;;;4.50;4.03;;;33.10;36.10;;;;;;5031694;28;20403;-70
2022/03/23 08:59:21;;;;;;;5.23;4.33;;;33.60;34.80;;;;;;5031670;28;20409;-69
2022/03/23 09:01:48;;;;;;;5.30;3.57;;;33.80;34.70;;;;;;5031425;28;20168;-69
2022/03/23 09:04:14;;;;;;;6.50;4.30;;;34.20;34.50;;;;;;5031539;28;20190;-70
2022/03/23 09:06:40;;;;;;;6.30;4.63;;;34.60;34.10;;;;;;5031665;28;20410;-69
2022/03/23 09:09:05;;;;;;;4.57;4.17;;;35.10;33.50;;;;;;5031664;28;20171;-69
2022/03/23 09:11:31;;;;;;;7.37;4.80;;;35.70;33.30;;;;;;5031305;28;20681;-70
2022/03/23 09:13:57;;;;;;;3.70;3.30;;;36.00;31.90;;;;;;5031515;28;20245;-70
2022/03/23 09:16:23;;;;;;;8.03;5.90;;;36.50;32.50;;;;;;5031577;28;20402;-70
2022/03/23 09:18:49;;;;;;;5.50;4.67;;;36.90;31.00;;;;;;5031685;28;20170;-70
2022/03/23 09:21:15;;;;;;;7.80;4.83;;;37.20;30.70;;;;;;5031513;28;20214;-70
2022/03/23 09:23:41;;;;;;;4.40;4.00;;;37.60;30.30;;;;;;5031331;28;20401;-70
2022/03/23 09:26:10;;;;;;;4.40;3.87;;;38.00;29.90;;;;;;5031577;28;20519;-70
2022/03/23 09:28:35;;;;;;;6.33;4.47;;;38.40;29.80;;;;;;5031505;28;20779;-71
2022/03/23 09:31:01;;;;;;;6.73;5.30;;;38.70;29.50;;;;;;5032430;28;20429;-70
2022/03/23 09:33:28;;;;;;;5.17;3.90;;;39.00;28.90;;;;;;5034878;28;20184;-71
2022/03/23 09:35:54;;;;;;;7.37;4.40;;;39.20;28.80;;;;;;5035001;28;20191;-70
2022/03/23 09:38:19;;;;;;;5.50;4.70;;;39.50;28.70;;;;;;5035112;28;20406;-70
2022/03/23 09:40:52;;;;;;;5.13;4.60;;;39.90;28.40;;;;;;5035020;28;20407;-70
2022/03/23 09:43:23;;;;;;;9.90;5.40;;;40.30;28.10;;;;;;5035030;28;20636;-71
2022/03/23 09:45:50;;;;;;;4.47;3.90;;;40.70;28.40;;;;;;5034918;28;20419;-71
2022/03/23 09:48:21;;;;;;;6.43;5.40;;;41.10;28.40;;;;;;5034987;28;20406;-71
2022/03/23 09:50:50;;;;;;;4.50;4.03;;;41.40;27.50;;;;;;5033669;28;20420;-71
2022/03/23 09:53:16;;;;;;;5.47;5.03;;;41.80;28.10;;;;;;5034398;28;20454;-71
2022/03/23 09:55:45;;;;;;;6.00;5.40;;;42.10;27.00;;;;;;5034665;28;20926;-71
2022/03/23 09:58:10;;;;;;;5.67;3.97;;;42.50;26.90;;;;;;5034742;28;20959;-71
2022/03/23 10:00:41;;;;;;;5.60;4.13;;;43.00;26.30;;;;;;5034705;28;20871;-71
2022/03/23 10:03:51;;;;;;;5.20;4.53;;;43.40;26.30;;;;;;5034396;28;20178;-71
2022/03/23 10:06:44;;;;;;;6.30;4.37;;;43.60;26.00;;;;;;5034480;28;20388;-71
2022/03/23 10:09:14;;;;;;;6.50;5.83;;;44.00;26.00;;;;;;5034577;28;20398;-71
2022/03/23 10:12:17;;;;;;;7.30;6.10;;;44.30;25.70;;;;;;5034282;28;20430;-71
2022/03/23 10:15:03;;;;;;;5.60;5.10;;;44.80;25.60;;;;;;5034190;28;20572;-71
2022/03/23 10:17:54;;;;;;;5.67;4.73;;;45.20;25.00;;;;;;5034412;28;20409;-71
2022/03/23 10:20:20;;;;;;;6.87;5.50;;;45.70;25.10;;;;;;5034265;28;20485;-71
2022/03/23 10:22:47;;;;;;;7.17;5.80;;;46.20;25.00;;;;;;5034095;28;20468;-71
2022/03/23 10:25:13;;;;;;;8.60;5.60;;;46.60;24.20;;;;;;5033996;28;20281;-71
2022/03/23 10:27:39;;;;;;;7.30;4.47;;;46.90;24.30;;;;;;5033000;28;20453;-71
2022/03/23 10:30:05;;;;;;;6.10;5.10;;;47.30;24.20;;;;;;5034137;28;20416;-71
2022/03/23 10:32:39;;;;;;;8.40;6.50;;;47.70;23.80;;;;;;5033806;28;20164;-71
2022/03/23 10:35:13;;;;;;;6.80;5.57;;;48.00;23.70;;;;;;5033950;28;20393;-71
2022/03/23 10:37:39;;;;;;;5.57;5.00;;;48.20;23.60;;;;;;5032754;28;20430;-71
2022/03/23 10:40:07;;;;;;;5.23;4.73;;;48.50;23.40;;;;;;5034024;28;20494;-71
2022/03/23 10:42:39;;;;;;;5.13;4.63;;;48.90;23.50;;;;;;5032312;28;20385;-71
2022/03/23 10:45:11;;;;;;;5.80;4.90;;;49.30;23.30;;;;;;5033618;28;20432;-71
2022/03/23 10:47:38;;;;;;;6.27;5.67;;;49.60;23.00;;;;;;5033798;28;20974;-71
2022/03/23 10:50:18;;;;;;;6.33;5.73;;;50.00;22.80;;;;;;5033838;28;20377;-72
2022/03/23 10:52:52;;;;;;;6.67;5.87;;;50.30;22.80;;;;;;5033442;28;20413;-71
2022/03/23 10:55:19;;;;;;;6.30;5.70;;;50.60;22.70;;;;;;5033464;28;20434;-71
2022/03/23 10:57:44;;;;;;;5.30;4.90;;;50.80;22.10;;;;;;5033634;28;20420;-72
2022/03/23 11:00:35;;;;;;;6.23;5.63;;;51.10;22.30;;;;;;5033539;28;20815;-72
2022/03/23 11:03:02;;;;;;;6.63;6.03;;;51.40;22.10;;;;;;5033293;28;20163;-72
2022/03/23 11:05:42;;;;;;;5.07;4.57;;;51.70;21.70;;;;;;5033349;28;20422;-71
2022/03/23 11:08:18;;;;;;;5.93;5.00;;;51.90;21.50;;;;;;5033347;28;20385;-71
2022/03/23 11:16:30;;;;;;;4.80;4.40;;;53.10;21.60;;;;;;5033524;28;20408;-72
2022/03/23 11:19:08;;;;;;;6.13;5.70;;;53.60;21.50;;;;;;5033246;28;20427;-72
2022/03/23 11:21:53;;;;;;;4.90;4.43;;;53.80;21.30;;;;;;5032924;28;20387;-72
2022/03/23 11:24:19;;;;;;;6.50;5.90;;;54.10;21.40;;;;;;5032777;28;20485;-72
2022/03/23 11:26:45;;;;;;;6.30;5.70;;;54.40;21.30;;;;;;5033023;28;20414;-72
2022/03/23 11:29:10;;;;;;;5.40;5.00;;;54.50;21.30;;;;;;5032965;28;20245;-72
2022/03/23 11:31:38;;;;;;;7.77;5.57;;;54.60;21.20;;;;;;5032761;28;20237;-72
2022/03/23 11:34:04;;;;;;;6.03;5.63;;;54.90;21.30;;;;;;5033018;28;20552;-72
2022/03/23 11:36:31;;;;;;;5.70;5.20;;;55.10;21.00;;;;;;5032876;28;20399;-72
2022/03/23 11:38:59;;;;;;;5.37;4.90;;;55.30;21.00;;;;;;5032893;28;20168;-72
2022/03/23 11:41:25;;;;;;;6.77;6.17;;;55.40;21.00;;;;;;5031486;28;20446;-72
2022/03/23 11:43:50;;;;;;;5.10;4.63;;;55.60;21.00;;;;;;5032182;28;20493;-72
2022/03/23 11:46:24;;;;;;;5.73;5.23;;;55.70;21.20;;;;;;5032762;28;20183;-72
2022/03/23 11:48:56;;;;;;;6.90;6.30;;;55.90;21.20;;;;;;5032859;28;20190;-72
2022/03/23 11:51:40;;;;;;;8.53;5.73;;;56.20;21.30;;;;;;5032614;28;20831;-72
2022/03/23 11:54:23;;;;;;;5.50;5.00;;;56.40;21.00;;;;;;5030749;28;20857;-72
2022/03/23 11:56:58;;;;;;;6.30;4.80;;;56.50;20.80;;;;;;5032490;28;20398;-72
2022/03/23 11:59:28;;;;;;;4.73;4.33;;;56.60;20.70;;;;;;5032813;28;20414;-72
2022/03/23 12:01:55;;;;;;;6.80;5.87;;;56.70;20.50;;;;;;5030948;28;20903;-72
2022/03/23 12:04:28;;;;;;;5.23;4.80;;;56.90;20.70;;;;;;5032238;28;20465;-72
2022/03/23 12:07:07;;;;;;;5.90;5.30;;;57.10;20.70;;;;;;5032389;28;20771;-72
2022/03/23 12:09:35;;;;;;;6.30;5.80;;;57.20;20.80;;;;;;5032364;28;20927;-72
2022/03/23 12:12:03;;;;;;;6.57;6.07;;;57.30;20.50;;;;;;5031977;28;20403;-72
2022/03/23 12:14:29;;;;;;;5.83;5.23;;;57.40;20.70;;;;;;5032112;28;20646;-72
2022/03/23 12:16:55;;;;;;;6.60;6.00;;;57.50;20.50;;;;;;5032172;28;20414;-72
2022/03/23 12:19:34;;;;;;;8.30;7.50;;;57.60;20.50;;;;;;5032167;28;20766;-72
2022/03/23 12:22:05;;;;;;;6.20;5.70;;;57.60;20.40;;;;;;5031992;28;20517;-72
2022/03/23 12:25:08;;;;;;;6.07;5.50;;;57.70;20.50;;;;;;5031963;28;20466;-72
2022/03/23 12:27:44;;;;;;;7.50;6.80;;;57.70;20.20;;;;;;5030793;28;20405;-72
2022/03/23 12:30:20;;;;;;;5.93;5.40;;;57.70;20.60;;;;;;5032118;28;20757;-72
2022/03/23 12:32:46;;;;;;;6.20;5.33;;;57.70;20.60;;;;;;5031793;28;20398;-72
2022/03/23 12:35:11;;;;;;;9.37;7.23;;;57.70;20.40;;;;;;5031964;28;20445;-72
2022/03/23 12:37:41;;;;;;;6.70;6.10;;;57.60;20.40;;;;;;5031129;28;20168;-72
2022/03/23 12:40:12;;;;;;;6.03;5.53;;;57.60;20.40;;;;;;5031964;28;20164;-72
2022/03/23 12:42:43;;;;;;;5.90;5.40;;;57.90;20.60;;;;;;5031690;28;20398;-72
2022/03/23 12:45:15;;;;;;;6.90;6.23;;;57.80;20.10;;;;;;5031794;28;20989;-72
2022/03/23 12:57:49;;;;;;;6.23;5.73;;;57.80;20.10;;;;;;5032308;28;20463;-72
2022/03/23 12:59:23;;;;;;;6.23;5.70;;;57.90;20.10;;;;;;5032020;28;20413;-72
2022/03/23 13:02:26;;;;;;;5.57;5.07;;;57.80;19.90;;;;;;5031443;28;20913;-72
2022/03/23 13:04:52;;;;;;;7.43;6.70;;;57.80;20.20;;;;;;5031491;28;20488;-72
2022/03/23 13:07:34;;;;;;;5.90;5.40;;;57.60;20.20;;;;;;5034935;28;20696;-72
2022/03/23 13:10:09;;;;;;;6.53;5.97;;;57.30;20.20;;;;;;5035619;28;20209;-72
2022/03/23 13:12:36;;;;;;;7.40;6.40;;;57.20;20.20;;;;;;5035347;28;20409;-72
2022/03/23 13:15:10;;;;;;;5.53;4.90;;;57.20;20.10;;;;;;5035475;28;20426;-72
2022/03/23 13:17:42;;;;;;;7.53;6.13;;;57.20;19.70;;;;;;5035414;28;20405;-72
2022/03/23 13:20:12;;;;;;;5.50;4.97;;;57.20;19.80;;;;;;5035721;28;20521;-72
2022/03/23 13:22:40;;;;;;;5.73;5.20;;;57.30;19.70;;;;;;5035194;28;20894;-72
2022/03/23 13:25:09;;;;;;;5.60;5.10;;;57.30;19.80;;;;;;5035220;28;20537;-72